Time;durP1;ratioP1;P1;durP2;ratioP2;P2;SDS_P1;SDS_P2;PMS_P1;PMS_P2;Temp;Humidity;BMP_temperature;BMP_pressure;BME280_temperature;BME280_humidity;BME280_pressure;Samples;Min_cycle;Max_cycle;Signal;HPM_P1;HPM_P2
2023/12/04 00:00:34;;;;;;;15.48;7.10;;;;;;;-6.62;100.00;99518.06;4453037;32;20096;-74
2023/12/04 00:03:04;;;;;;;22.40;8.77;;;;;;;-6.56;100.00;99517.19;4453112;32;20101;-74
2023/12/04 00:05:31;;;;;;;18.45;6.97;;;;;;;-6.58;100.00;99516.34;4453095;32;20084;-74
2023/12/04 00:07:59;;;;;;;15.40;7.10;;;;;;;-6.56;100.00;99514.63;4453499;32;20367;-74
2023/12/04 00:10:27;;;;;;;18.35;6.93;;;;;;;-6.58;100.00;99513.81;4453167;32;20119;-74
2023/12/04 00:12:55;;;;;;;14.40;7.47;;;;;;;-6.62;100.00;99501.06;4452799;32;20172;-74
2023/12/04 00:15:26;;;;;;;14.57;6.50;;;;;;;-6.65;100.00;99501.09;4453238;32;20575;-74
2023/12/04 00:17:54;;;;;;;15.48;7.07;;;;;;;-6.70;100.00;99502.84;4462563;32;20132;-75
2023/12/04 00:20:22;;;;;;;15.35;6.72;;;;;;;-6.73;100.00;99499.47;4468049;32;20097;-74
2023/12/04 00:22:49;;;;;;;17.00;7.03;;;;;;;-6.75;100.00;99507.13;4468324;32;20105;-74
2023/12/04 00:25:17;;;;;;;16.23;5.80;;;;;;;-6.81;100.00;99496.97;4468416;32;20088;-74
2023/12/04 00:27:46;;;;;;;13.07;5.35;;;;;;;-6.84;100.00;99500.38;4468438;32;20104;-74
2023/12/04 00:30:14;;;;;;;10.75;6.47;;;;;;;-6.83;100.00;99502.09;4454172;32;20138;-74
2023/12/04 00:32:42;;;;;;;12.45;6.37;;;;;;;-6.83;100.00;99516.50;4452621;32;20098;-74
2023/12/04 00:35:10;;;;;;;16.20;6.75;;;;;;;-6.89;100.00;99519.09;4452692;32;20136;-74
2023/12/04 00:37:38;;;;;;;12.93;5.60;;;;;;;-6.88;100.00;99505.50;4452669;32;20174;-74
2023/12/04 00:40:08;;;;;;;10.35;5.45;;;;;;;-6.85;100.00;99505.50;4452739;32;20138;-74
2023/12/04 00:42:43;;;;;;;15.50;6.55;;;;;;;-6.81;100.00;99502.91;4452484;32;20089;-74
2023/12/04 00:45:11;;;;;;;13.20;5.55;;;;;;;-6.81;100.00;99499.53;4452604;32;20120;-74
2023/12/04 00:47:39;;;;;;;15.18;7.20;;;;;;;-6.87;100.00;99505.50;4452591;32;20093;-74
2023/12/04 00:50:07;;;;;;;14.07;6.85;;;;;;;-6.93;100.00;99510.63;4452439;32;20116;-74
2023/12/04 00:52:35;;;;;;;16.55;7.78;;;;;;;-6.90;100.00;99513.16;4452284;32;20490;-74
2023/12/04 00:55:03;;;;;;;25.08;9.85;;;;;;;-6.91;100.00;99513.19;4452077;32;20470;-74
2023/12/04 00:57:30;;;;;;;20.50;9.05;;;;;;;-6.95;100.00;99504.69;4452470;32;20108;-74
2023/12/04 00:59:58;;;;;;;17.60;8.00;;;;;;;-7.09;100.00;99504.78;4452393;32;20489;-74
2023/12/04 01:02:26;;;;;;;23.10;9.68;;;;;;;-7.16;100.00;99498.87;4452434;32;20156;-74
2023/12/04 01:04:56;;;;;;;17.40;8.82;;;;;;;-7.07;100.00;99492.91;4452574;32;20161;-74
2023/12/04 01:07:24;;;;;;;15.05;6.90;;;;;;;-7.09;100.00;99498.84;4452279;32;20430;-74
2023/12/04 01:09:51;;;;;;;15.18;7.10;;;;;;;-7.13;100.00;99500.56;4452347;32;20097;-74
2023/12/04 01:12:19;;;;;;;14.30;5.53;;;;;;;-7.11;100.00;99506.50;4452069;32;20111;-74
2023/12/04 01:14:47;;;;;;;14.93;7.12;;;;;;;-7.17;100.00;99506.53;4452502;32;20386;-74
2023/12/04 01:17:14;;;;;;;12.93;5.85;;;;;;;-7.21;100.00;99510.78;4457699;32;20559;-74
2023/12/04 01:19:42;;;;;;;12.18;5.87;;;;;;;-7.17;100.00;99511.63;4467585;32;20092;-74
2023/12/04 01:22:10;;;;;;;15.77;5.65;;;;;;;-7.24;100.00;99520.16;4467637;32;20446;-74
2023/12/04 01:24:38;;;;;;;12.55;4.82;;;;;;;-7.20;100.00;99537.09;4467568;32;20120;-74
2023/12/04 01:27:05;;;;;;;14.02;6.62;;;;;;;-7.25;100.00;99534.59;4467814;32;20433;-74
2023/12/04 01:29:34;;;;;;;11.88;5.25;;;;;;;-7.21;100.00;99532.84;4457941;32;20132;-74
2023/12/04 01:32:02;;;;;;;12.07;5.50;;;;;;;-7.22;100.00;99533.69;4451886;32;20196;-74
2023/12/04 01:34:33;;;;;;;11.90;4.90;;;;;;;-7.26;100.00;99537.13;4454213;32;20137;-74
2023/12/04 01:37:01;;;;;;;11.80;5.45;;;;;;;-7.28;100.00;99524.41;4454462;32;20101;-74
2023/12/04 01:39:29;;;;;;;11.75;6.03;;;;;;;-7.34;100.00;99529.53;4454415;32;20168;-74
2023/12/04 01:41:57;;;;;;;9.80;5.07;;;;;;;-7.27;100.00;99522.72;4454168;32;20580;-74
2023/12/04 01:44:25;;;;;;;12.80;5.12;;;;;;;-7.25;100.00;99523.53;4454183;32;20145;-74
2023/12/04 01:46:54;;;;;;;10.73;5.18;;;;;;;-7.20;100.00;99521.81;4454265;32;20090;-74
2023/12/04 01:49:22;;;;;;;9.18;5.00;;;;;;;-7.20;100.00;99542.19;4454223;32;20157;-74
2023/12/04 01:51:50;;;;;;;11.65;4.82;;;;;;;-7.23;100.00;99537.94;4454176;32;20496;-74
2023/12/04 01:54:19;;;;;;;8.57;4.57;;;;;;;-7.23;100.00;99537.13;4454130;32;20088;-74
2023/12/04 01:56:46;;;;;;;12.82;5.95;;;;;;;-7.20;100.00;99534.56;4440098;32;20105;-74
2023/12/04 01:59:15;;;;;;;9.70;4.68;;;;;;;-7.17;100.00;99527.75;4440296;32;20097;-74
2023/12/04 02:01:43;;;;;;;11.57;5.50;;;;;;;-7.18;100.00;99520.09;4454089;32;20170;-74
2023/12/04 02:04:12;;;;;;;13.62;4.85;;;;;;;-7.17;100.00;99519.28;4440169;32;20092;-74
2023/12/04 02:06:43;;;;;;;10.75;4.87;;;;;;;-7.22;100.00;99528.59;4453939;32;20528;-74
2023/12/04 02:09:12;;;;;;;15.32;5.80;;;;;;;-7.27;100.00;99531.19;4440026;32;20113;-74
2023/12/04 02:11:40;;;;;;;13.38;6.55;;;;;;;-7.17;100.00;99534.53;4454194;32;20478;-74
2023/12/04 02:14:08;;;;;;;13.90;6.05;;;;;;;-7.10;100.00;99531.13;4454008;32;20085;-74
2023/12/04 02:16:39;;;;;;;10.60;4.82;;;;;;;-7.09;100.00;99524.31;4455054;32;20139;-74
2023/12/04 02:19:13;;;;;;;11.00;5.05;;;;;;;-7.14;100.00;99527.72;4455873;32;20100;-74
2023/12/04 02:21:41;;;;;;;;;;;;;;;-7.14;100.00;99527.72;4469949;32;20163;-74
2023/12/04 02:24:10;;;;;;;11.93;5.12;;;;;;;-7.20;100.00;99521.81;4469576;32;20377;-74
2023/12/04 02:26:47;;;;;;;12.30;5.60;;;;;;;-7.14;100.00;99516.69;4469422;32;20115;-74
2023/12/04 02:29:40;;;;;;;15.77;5.53;;;;;;;-7.13;100.00;99523.47;4447864;32;20105;-74
2023/12/04 02:32:11;;;;;;;14.00;5.93;;;;;;;-7.10;100.00;99520.06;4453857;32;20144;-74
2023/12/04 02:34:42;;;;;;;12.05;5.25;;;;;;;-7.17;100.00;99516.72;4453880;32;20179;-75
2023/12/04 02:37:11;;;;;;;18.25;6.15;;;;;;;-7.12;100.00;99517.53;4439988;32;20119;-74
2023/12/04 02:39:39;;;;;;;11.10;5.95;;;;;;;-7.10;100.00;99517.53;4439956;32;20112;-74
2023/12/04 02:42:06;;;;;;;12.25;6.25;;;;;;;-6.96;100.00;99520.84;4440039;32;20123;-74
2023/12/04 02:44:34;;;;;;;13.62;6.65;;;;;;;-6.98;100.00;99518.31;4453337;32;20097;-74
2023/12/04 02:47:02;;;;;;;13.93;6.53;;;;;;;-7.00;100.00;99529.34;4453634;32;20135;-74
2023/12/04 02:49:30;;;;;;;13.35;6.78;;;;;;;-6.95;100.00;99527.63;4439380;32;20088;-74
2023/12/04 02:51:58;;;;;;;18.17;7.65;;;;;;;-6.95;100.00;99525.06;4453684;32;20518;-74
2023/12/04 02:54:26;;;;;;;14.00;6.53;;;;;;;-7.00;100.00;99532.72;4453681;32;20116;-74
2023/12/04 02:56:53;;;;;;;12.65;5.95;;;;;;;-7.00;100.00;99520.00;4453525;32;20125;-74
2023/12/04 02:59:22;;;;;;;13.62;6.03;;;;;;;-6.91;100.00;99520.81;4453715;32;20168;-74
2023/12/04 03:01:50;;;;;;;12.75;5.53;;;;;;;-6.88;100.00;99524.19;4453720;32;20105;-75
2023/12/04 03:04:19;;;;;;;14.77;6.30;;;;;;;-6.77;100.00;99521.56;4453750;32;20092;-74
2023/12/04 03:06:48;;;;;;;12.27;5.85;;;;;;;-6.74;100.00;99520.69;4453521;32;20082;-74
2023/12/04 03:09:16;;;;;;;19.77;7.40;;;;;;;-6.75;100.00;99529.19;4453714;32;20127;-74
2023/12/04 03:11:44;;;;;;;13.68;6.18;;;;;;;-6.73;100.00;99528.34;4453434;32;20130;-74
2023/12/04 03:14:12;;;;;;;14.68;6.15;;;;;;;-6.64;100.00;99530.81;4453676;32;20120;-74
2023/12/04 03:16:40;;;;;;;10.93;6.00;;;;;;;-6.63;100.00;99527.41;4455233;32;20535;-74
2023/12/04 03:19:08;;;;;;;13.57;6.18;;;;;;;-6.63;100.00;99535.06;4469102;32;20093;-74
2023/12/04 03:21:38;;;;;;;11.23;5.87;;;;;;;-6.70;100.00;99520.66;4469186;32;20085;-74
2023/12/04 03:24:06;;;;;;;13.25;6.62;;;;;;;-6.76;100.00;99528.34;4469017;32;20097;-74
2023/12/04 03:26:36;;;;;;;13.05;6.37;;;;;;;-6.75;100.00;99534.28;4469351;32;20124;-74
2023/12/04 03:29:03;;;;;;;14.02;6.93;;;;;;;-6.72;100.00;99530.03;4462853;32;20123;-74
2023/12/04 03:31:34;;;;;;;10.60;5.72;;;;;;;-6.76;100.00;99541.09;4453735;32;20526;-74
2023/12/04 03:34:01;;;;;;;13.77;6.07;;;;;;;-6.87;100.00;99542.84;4453411;32;20168;-74
2023/12/04 03:36:29;;;;;;;16.67;5.57;;;;;;;-6.99;100.00;99542.06;4453308;32;20732;-74
2023/12/04 03:38:57;;;;;;;10.45;5.43;;;;;;;-6.96;100.00;99536.97;4453476;32;20457;-74
2023/12/04 03:41:25;;;;;;;13.43;6.62;;;;;;;-7.04;100.00;99548.03;4453757;32;20085;-74
2023/12/04 03:43:53;;;;;;;19.23;6.40;;;;;;;-7.14;100.00;99543.00;4453367;32;20159;-74
2023/12/04 03:46:21;;;;;;;11.52;5.53;;;;;;;-7.37;100.00;99539.72;4453413;32;20089;-74
2023/12/04 03:48:49;;;;;;;12.73;5.62;;;;;;;-7.42;100.00;99536.34;4453449;32;20450;-74
2023/12/04 03:51:17;;;;;;;15.70;8.55;;;;;;;-7.53;100.00;99539.75;4453402;32;20105;-74
2023/12/04 03:53:45;;;;;;;15.95;6.93;;;;;;;-7.50;100.00;99539.75;4453376;32;20093;-74
2023/12/04 03:56:12;;;;;;;12.68;5.43;;;;;;;-7.39;100.00;99534.63;4451933;32;20171;-74
2023/12/04 03:58:40;;;;;;;12.20;5.80;;;;;;;-7.44;100.00;99538.06;4453408;32;20124;-74
2023/12/04 04:01:08;;;;;;;16.65;6.75;;;;;;;-7.55;100.00;99533.00;4453131;32;20093;-74
2023/12/04 04:03:36;;;;;;;9.68;6.25;;;;;;;-7.57;100.00;99527.94;4453312;32;20089;-74
2023/12/04 04:06:04;;;;;;;12.98;6.82;;;;;;;-7.65;100.00;99513.53;4453337;32;20093;-74
2023/12/04 04:08:32;;;;;;;15.73;6.78;;;;;;;-7.70;100.00;99514.38;4453146;32;20154;-74
2023/12/04 04:11:00;;;;;;;14.60;7.05;;;;;;;-7.59;100.00;99518.59;4453165;32;20548;-74
2023/12/04 04:13:28;;;;;;;19.25;8.30;;;;;;;-7.52;100.00;99518.56;4453025;32;20097;-74
2023/12/04 04:15:56;;;;;;;11.00;5.75;;;;;;;-7.47;100.00;99516.00;4453185;32;20101;-74
2023/12/04 04:18:25;;;;;;;15.02;6.15;;;;;;;-7.46;100.00;99517.69;4466054;32;20157;-74
2023/12/04 04:20:52;;;;;;;10.80;6.03;;;;;;;-7.48;100.00;99521.94;4468673;32;20088;-74
2023/12/04 04:23:20;;;;;;;14.23;5.68;;;;;;;-7.53;100.00;99524.50;4468525;32;20101;-74
2023/12/04 04:25:48;;;;;;;14.55;6.40;;;;;;;-7.66;100.00;99517.75;4468489;32;20100;-74
2023/12/04 04:28:16;;;;;;;12.10;6.03;;;;;;;-7.80;100.00;99527.13;4466863;32;20101;-74
2023/12/04 04:30:43;;;;;;;17.95;7.18;;;;;;;-7.82;100.00;99531.41;4438706;32;20101;-74
2023/12/04 04:33:12;;;;;;;14.60;6.32;;;;;;;-7.65;100.00;99534.72;4452754;32;20093;-74
2023/12/04 04:35:39;;;;;;;15.48;6.95;;;;;;;-7.60;100.00;99527.94;4452705;32;20089;-74
2023/12/04 04:38:07;;;;;;;15.43;5.65;;;;;;;-7.45;100.00;99538.91;4452933;32;20127;-74
2023/12/04 04:40:35;;;;;;;13.80;7.18;;;;;;;-7.46;100.00;99535.50;4453076;32;20510;-74
2023/12/04 04:43:03;;;;;;;14.87;6.65;;;;;;;-7.46;100.00;99535.50;4452987;32;20154;-74
2023/12/04 04:45:30;;;;;;;11.45;6.95;;;;;;;-7.48;100.00;99537.19;4452702;32;20101;-74
2023/12/04 04:47:58;;;;;;;13.05;6.47;;;;;;;-7.51;100.00;99533.00;4452560;32;20127;-74
2023/12/04 04:50:26;;;;;;;12.70;6.28;;;;;;;-7.47;100.00;99532.97;4452604;32;20089;-74
2023/12/04 04:52:54;;;;;;;16.62;6.70;;;;;;;-7.50;100.00;99528.75;4452421;32;20136;-74
2023/12/04 04:55:22;;;;;;;8.55;4.53;;;;;;;-7.55;100.00;99538.94;4452274;32;20097;-74
2023/12/04 04:58:11;;;;;;;12.73;5.37;;;;;;;-7.54;100.00;99549.94;4452420;32;20093;-73
2023/12/04 05:00:39;;;;;;;11.25;5.57;;;;;;;-7.57;100.00;99558.47;4452292;32;20085;-74
2023/12/04 05:03:07;;;;;;;12.10;4.80;;;;;;;-7.57;100.00;99557.59;4452328;32;20109;-74
2023/12/04 05:05:34;;;;;;;10.65;4.57;;;;;;;-7.71;100.00;99555.94;4452584;32;20485;-74
2023/12/04 05:08:03;;;;;;;14.43;6.00;;;;;;;-7.82;100.00;99554.28;4453718;32;20097;-74
2023/12/04 05:10:31;;;;;;;12.85;5.65;;;;;;;-7.82;100.00;99542.41;4459155;32;20153;-74
2023/12/04 05:12:59;;;;;;;11.20;6.05;;;;;;;-7.75;100.00;99539.00;4469706;32;20154;-74
2023/12/04 05:15:27;;;;;;;16.08;5.85;;;;;;;-7.68;100.00;99543.19;4469416;32;20708;-74
2023/12/04 05:17:55;;;;;;;12.63;5.05;;;;;;;-7.69;100.00;99541.53;4468730;32;20100;-74
2023/12/04 05:20:25;;;;;;;10.30;4.97;;;;;;;-7.70;100.00;99542.38;4460518;32;20119;-74
2023/12/04 05:22:54;;;;;;;12.20;5.75;;;;;;;-7.68;100.00;99540.66;4454434;32;20098;-74
2023/12/04 05:25:24;;;;;;;13.25;5.95;;;;;;;-7.70;100.00;99542.38;4458594;32;20104;-74
2023/12/04 05:27:58;;;;;;;11.70;4.95;;;;;;;-7.71;100.00;99540.66;4463630;32;20092;-74
2023/12/04 05:30:27;;;;;;;10.05;4.28;;;;;;;-7.69;100.00;99546.63;4462120;32;20089;-74
2023/12/04 05:32:54;;;;;;;9.20;5.60;;;;;;;-7.68;100.00;99540.66;4459029;32;20097;-74
2023/12/04 05:35:24;;;;;;;11.45;5.70;;;;;;;-7.62;100.00;99541.50;4454988;32;20131;-74
2023/12/04 05:37:52;;;;;;;8.98;4.37;;;;;;;-7.61;100.00;99540.66;4455702;32;20162;-74
2023/12/04 05:40:20;;;;;;;8.27;4.22;;;;;;;-7.58;100.00;99548.28;4454229;32;20148;-74
2023/12/04 05:42:49;;;;;;;10.23;4.35;;;;;;;-7.55;100.00;99551.66;4441295;32;20109;-74
2023/12/04 05:45:17;;;;;;;10.15;5.00;;;;;;;-7.41;100.00;99545.69;4454674;32;20124;-74
2023/12/04 05:47:45;;;;;;;8.75;5.03;;;;;;;-7.42;100.00;99539.72;4461092;32;20118;-74
2023/12/04 05:50:13;;;;;;;12.20;3.55;;;;;;;-7.40;100.00;99540.56;4469638;32;20100;-74
2023/12/04 05:52:41;;;;;;;9.88;4.35;;;;;;;-7.49;100.00;99541.44;4456992;32;20529;-73
2023/12/04 05:55:11;;;;;;;11.00;4.15;;;;;;;-7.54;100.00;99547.41;4454112;32;20097;-73
2023/12/04 05:57:40;;;;;;;9.98;3.80;;;;;;;-7.53;100.00;99546.56;4460186;32;20582;-73
2023/12/04 06:00:12;;;;;;;8.75;4.47;;;;;;;-7.54;100.00;99549.94;4463770;32;20116;-73
2023/12/04 06:11:15;;;;;;;6.85;3.12;;;;;;;-7.87;100.00;99544.13;4521566;31;131199;-73
2023/12/04 06:13:43;;;;;;;6.07;4.32;;;;;;;-7.83;100.00;99548.31;4508990;31;20154;-74
2023/12/04 06:16:11;;;;;;;11.73;4.43;;;;;;;-7.78;100.00;99543.22;4511876;31;20482;-73
2023/12/04 06:18:39;;;;;;;7.62;4.15;;;;;;;-7.76;100.00;99544.09;4510136;31;20096;-73
2023/12/04 06:21:07;;;;;;;9.52;3.50;;;;;;;-7.83;100.00;99557.66;4505096;31;20453;-73
2023/12/04 06:23:35;;;;;;;6.03;3.08;;;;;;;-7.87;100.00;99552.59;4500493;31;20100;-73
2023/12/04 06:26:03;;;;;;;10.60;4.47;;;;;;;-7.83;100.00;99555.97;4497830;31;20141;-73
2023/12/04 06:28:32;;;;;;;10.23;4.95;;;;;;;-7.79;100.00;99552.56;4509360;31;20134;-73
2023/12/04 06:31:00;;;;;;;8.20;3.65;;;;;;;-7.74;100.00;99561.03;4499542;31;20096;-74
2023/12/04 06:33:30;;;;;;;8.90;4.07;;;;;;;-7.73;100.00;99559.34;4511353;31;20219;-74
2023/12/04 06:35:59;;;;;;;13.23;4.90;;;;;;;-7.68;100.00;99562.72;4503059;31;20145;-74
2023/12/04 06:38:30;;;;;;;7.93;4.05;;;;;;;-7.63;100.00;99568.66;4505243;31;20139;-74
2023/12/04 06:40:58;;;;;;;17.35;4.62;;;;;;;-7.54;100.00;99568.63;4501900;31;20127;-74
2023/12/04 06:43:27;;;;;;;13.93;4.10;;;;;;;-7.43;100.00;99566.03;4507528;31;20152;-74
2023/12/04 06:45:58;;;;;;;9.65;4.43;;;;;;;-7.29;100.00;99572.78;4506886;31;20095;-73
2023/12/04 06:48:26;;;;;;;7.55;3.62;;;;;;;-7.20;100.00;99572.75;4512474;31;20083;-72
2023/12/04 06:50:54;;;;;;;9.85;4.57;;;;;;;-7.05;100.00;99580.31;4506829;31;20111;-75
2023/12/04 06:53:22;;;;;;;13.90;5.72;;;;;;;-6.90;100.00;99581.94;4505791;31;20117;-73
2023/12/04 06:55:51;;;;;;;16.87;4.37;;;;;;;-6.75;100.00;99588.66;4504963;31;20152;-73
2023/12/04 06:58:19;;;;;;;12.15;5.00;;;;;;;-6.63;100.00;99587.72;4488628;31;20167;-73
2023/12/04 07:00:48;;;;;;;10.05;4.32;;;;;;;-6.51;100.00;99584.25;4502725;31;20126;-75
2023/12/04 07:03:16;;;;;;;10.15;4.28;;;;;;;-6.30;100.00;99583.25;4499980;31;20088;-74
2023/12/04 07:05:45;;;;;;;11.38;4.85;;;;;;;-6.12;100.00;99577.16;4499940;31;20445;-74
2023/12/04 07:08:13;;;;;;;11.80;5.20;;;;;;;-5.95;100.00;99585.50;4506608;31;20096;-74
2023/12/04 07:10:42;;;;;;;11.68;4.12;;;;;;;-5.79;100.00;99590.44;4501219;31;20572;-74
2023/12/04 07:13:12;;;;;;;7.50;4.60;;;;;;;-5.62;100.00;99580.91;4503478;31;20148;-74
2023/12/04 07:15:40;;;;;;;8.13;4.28;;;;;;;-5.44;100.00;99576.47;4504030;31;20841;-73
2023/12/04 07:18:19;;;;;;;17.52;4.95;;;;;;;-5.30;100.00;99581.41;4505992;31;20083;-73
2023/12/04 07:20:47;;;;;;;9.45;4.50;;;;;;;-5.15;100.00;99585.50;4504686;31;20096;-72
2023/12/04 07:23:15;;;;;;;10.75;5.30;;;;;;;-5.05;100.00;99585.38;4496379;31;20271;-73
2023/12/04 07:25:43;;;;;;;10.40;5.15;;;;;;;-4.81;100.00;99584.19;4494478;31;20108;-73
2023/12/04 07:28:11;;;;;;;11.65;5.40;;;;;;;-4.69;100.00;99577.25;4491867;31;20192;-73
2023/12/04 07:30:39;;;;;;;12.35;5.37;;;;;;;-4.58;100.00;99585.59;4492925;31;20177;-74
2023/12/04 07:33:07;;;;;;;16.33;6.75;;;;;;;-4.43;100.00;99596.47;4493896;31;20460;-73
2023/12/04 07:35:37;;;;;;;14.25;6.43;;;;;;;-4.32;100.00;99584.38;4495446;31;20896;-73
2023/12/04 07:38:05;;;;;;;10.93;6.10;;;;;;;-4.28;100.00;99583.47;4495404;31;20119;-73
2023/12/04 07:40:32;;;;;;;13.90;6.82;;;;;;;-4.16;100.00;99580.69;4495631;31;20485;-72
2023/12/04 07:43:04;;;;;;;18.10;7.18;;;;;;;-3.99;100.00;99582.13;4500696;31;20819;-71
2023/12/04 07:45:32;;;;;;;15.73;6.57;;;;;;;-3.86;100.00;99582.75;4490120;31;20499;-72
2023/12/04 07:48:00;;;;;;;17.00;6.20;;;;;;;-3.80;100.00;99590.34;4494252;31;20149;-73
2023/12/04 07:50:27;;;;;;;16.00;7.50;;;;;;;-3.71;100.00;99595.28;4496694;31;20091;-74
2023/12/04 07:52:58;;;;;;;19.20;8.02;;;;;;;-3.66;100.00;99588.38;4494859;31;20817;-74
2023/12/04 07:55:26;;;;;;;18.83;6.78;;;;;;;-3.51;100.00;99586.41;4483149;31;20775;-74
2023/12/04 07:57:56;;;;;;;12.32;5.50;;;;;;;-3.27;100.00;99587.66;4486667;31;20171;-73
2023/12/04 08:00:25;;;;;;;18.00;5.87;;;;;;;-3.24;100.00;99592.72;4500607;31;20102;-72
2023/12/04 08:02:53;;;;;;;16.10;6.18;;;;;;;-3.06;100.00;99594.94;4494991;31;20472;-73
2023/12/04 08:05:21;;;;;;;15.13;6.22;;;;;;;-2.92;100.00;99597.22;4499085;31;20096;-73
2023/12/04 08:07:50;;;;;;;11.63;5.45;;;;;;;-2.83;100.00;99596.19;4500838;31;20100;-72
2023/12/04 08:10:18;;;;;;;11.90;5.53;;;;;;;-2.75;100.00;99591.72;4491217;31;20740;-72
2023/12/04 08:12:46;;;;;;;13.82;4.97;;;;;;;-2.74;100.00;99593.41;4485495;31;20461;-72
2023/12/04 08:15:15;;;;;;;12.32;5.60;;;;;;;-2.68;100.00;99598.41;4487791;31;20190;-72
2023/12/04 08:17:44;;;;;;;8.93;5.30;;;;;;;-2.56;100.00;99599.88;4496657;31;20119;-73
2023/12/04 08:20:13;;;;;;;10.95;5.40;;;;;;;-2.50;100.00;99599.72;4500145;31;20147;-73
2023/12/04 08:22:52;;;;;;;10.23;4.80;;;;;;;-2.39;100.00;99608.88;4489961;31;20083;-73
2023/12/04 08:25:21;;;;;;;8.73;4.37;;;;;;;-2.38;100.00;99608.00;4492552;31;20093;-73
2023/12/04 08:27:50;;;;;;;8.38;4.70;;;;;;;-2.27;100.00;99603.50;4491328;31;20092;-73
2023/12/04 08:30:21;;;;;;;11.55;4.93;;;;;;;-2.28;100.00;99595.81;4499134;31;20207;-74
2023/12/04 08:32:49;;;;;;;9.93;4.85;;;;;;;-2.17;100.00;99596.41;4489359;31;20092;-73
2023/12/04 08:35:17;;;;;;;8.27;4.30;;;;;;;-2.12;100.00;99602.25;4496018;31;20145;-74
2023/12/04 08:37:45;;;;;;;11.18;5.32;;;;;;;-2.06;100.00;99597.00;4499668;31;20084;-73
2023/12/04 08:40:13;;;;;;;11.00;5.28;;;;;;;-2.02;100.00;99606.28;4490327;31;20101;-73
2023/12/04 08:42:40;;;;;;;12.23;5.12;;;;;;;-1.95;100.00;99607.00;4492274;31;20165;-73
2023/12/04 08:45:09;;;;;;;11.77;5.20;;;;;;;-1.76;100.00;99602.25;4490717;31;20200;-73
2023/12/04 08:47:37;;;;;;;12.00;5.68;;;;;;;-1.86;100.00;99603.34;4496641;31;20429;-73
2023/12/04 08:50:05;;;;;;;8.05;3.80;;;;;;;-1.80;100.00;99605.78;4484692;31;20104;-73
2023/12/04 08:52:33;;;;;;;9.40;4.55;;;;;;;-1.71;100.00;99605.56;4497886;31;20112;-72
2023/12/04 08:55:01;;;;;;;9.77;4.80;;;;;;;-1.76;100.00;99602.25;4486531;31;20099;-73
2023/12/04 08:57:32;;;;;;;9.00;4.15;;;;;;;-1.50;100.00;99603.28;4483938;31;20795;-75
2023/12/04 09:00:00;;;;;;;8.98;4.75;;;;;;;-1.54;100.00;99612.81;4493474;31;20096;-72
2023/12/04 09:02:31;;;;;;;10.07;4.65;;;;;;;-1.42;100.00;99611.66;4489685;31;20152;-74
2023/12/04 09:04:59;;;;;;;9.13;3.92;;;;;;;-1.55;100.00;99612.84;4483153;31;20101;-74
2023/12/04 09:07:27;;;;;;;9.90;3.95;;;;;;;-1.65;100.00;99615.66;4483143;31;20096;-72
2023/12/04 09:10:14;;;;;;;7.87;4.07;;;;;;;-1.47;100.00;99608.34;4496484;31;20107;-73
2023/12/04 09:13:07;;;;;;;11.70;5.15;;;;;;;-1.50;100.00;99617.00;4484577;31;20099;-73
2023/12/04 09:15:36;;;;;;;7.93;3.83;;;;;;;-1.72;100.00;99611.56;4498750;31;20165;-72
2023/12/04 09:18:04;;;;;;;9.75;4.50;;;;;;;-1.54;100.00;99612.81;4489899;31;20088;-73
2023/12/04 09:20:32;;;;;;;10.38;4.90;;;;;;;-1.43;100.00;99615.09;4499111;31;20130;-72
2023/12/04 09:23:01;;;;;;;13.98;5.72;;;;;;;-1.27;100.00;99605.25;4492269;31;20112;-72
2023/12/04 09:25:36;;;;;;;10.88;4.60;;;;;;;-1.15;100.00;99604.06;4493652;31;20373;-72
2023/12/04 09:28:04;;;;;;;12.45;5.18;;;;;;;-1.18;100.00;99599.00;4494171;31;20108;-73
2023/12/04 09:30:31;;;;;;;9.18;4.60;;;;;;;-1.24;100.00;99600.03;4490573;31;20485;-72
2023/12/04 09:32:58;;;;;;;12.32;5.68;;;;;;;-1.19;100.00;99597.34;4497992;31;20108;-72
2023/12/04 09:35:27;;;;;;;14.32;6.97;;;;;;;-1.27;100.00;99588.09;4499462;31;20162;-72
2023/12/04 09:37:54;;;;;;;12.93;6.43;;;;;;;-1.13;100.00;99586.88;4496399;31;20144;-74
2023/12/04 09:40:21;;;;;;;14.85;6.80;;;;;;;-1.21;100.00;99586.22;4496986;31;20165;-73
2023/12/04 09:42:49;;;;;;;18.73;7.53;;;;;;;-1.21;100.00;99583.66;4486919;31;20092;-73
2023/12/04 09:45:20;;;;;;;19.08;8.48;;;;;;;-0.98;100.00;99575.31;4492499;31;20083;-73
2023/12/04 09:47:48;;;;;;;19.02;8.13;;;;;;;-1.00;100.00;99577.94;4501489;31;20092;-73
2023/12/04 09:50:20;;;;;;;17.30;7.40;;;;;;;-0.96;100.00;99571.78;4486940;31;20092;-72
2023/12/04 09:52:53;;;;;;;15.48;6.72;;;;;;;-0.84;100.00;99569.75;4495766;31;20100;-73
2023/12/04 09:55:26;;;;;;;13.52;7.03;;;;;;;-0.73;100.00;99565.13;4494978;31;20096;-72
2023/12/04 09:57:57;;;;;;;15.93;6.62;;;;;;;-0.85;100.00;99560.34;4477314;31;20089;-72
2023/12/04 10:00:25;;;;;;;12.63;6.45;;;;;;;-0.63;100.00;99556.25;4492099;31;20112;-73
2023/12/04 10:02:53;;;;;;;10.43;5.87;;;;;;;-0.75;100.00;99547.16;4490111;31;20099;-72
2023/12/04 10:05:24;;;;;;;14.57;6.32;;;;;;;-0.77;100.00;99543.81;4483454;31;20097;-72
2023/12/04 10:07:51;;;;;;;13.82;6.93;;;;;;;-0.52;100.00;99543.03;4486664;31;20088;-72
2023/12/04 10:10:19;;;;;;;17.40;5.12;;;;;;;-0.77;100.00;99541.22;4486367;31;20096;-73
2023/12/04 10:12:47;;;;;;;10.65;6.03;;;;;;;-0.93;100.00;99527.16;4492827;31;20160;-73
2023/12/04 10:15:16;;;;;;;10.57;5.78;;;;;;;-1.01;100.00;99524.81;4487754;31;20123;-73
2023/12/04 10:17:44;;;;;;;16.77;5.85;;;;;;;-0.73;100.00;99527.41;4487297;31;20142;-73
2023/12/04 10:20:20;;;;;;;12.50;4.93;;;;;;;-0.61;100.00;99518.44;4482768;31;20084;-73
2023/12/04 10:23:01;;;;;;;12.57;6.18;;;;;;;-0.74;100.00;99512.00;4483645;31;20131;-74
2023/12/04 10:25:30;;;;;;;18.90;5.65;;;;;;;-1.07;100.00;99509.56;4488785;31;20775;-71
2023/12/04 10:28:09;;;;;;;9.38;5.55;;;;;;;-0.77;100.00;99501.81;4485877;31;20568;-72
2023/12/04 10:30:37;;;;;;;10.82;4.90;;;;;;;-0.62;100.00;99501.31;4484613;31;20143;-72
2023/12/04 10:33:08;;;;;;;7.95;3.95;;;;;;;-0.40;100.00;99506.59;4490712;31;20159;-72
2023/12/04 10:35:36;;;;;;;17.85;5.03;;;;;;;-0.74;100.00;99502.56;4489555;31;20137;-72
2023/12/04 10:38:06;;;;;;;11.20;5.05;;;;;;;-0.75;100.00;99494.88;4489261;31;20525;-73
2023/12/04 10:40:35;;;;;;;15.93;5.85;;;;;;;-0.51;100.00;99493.25;4482926;31;21098;-73
2023/12/04 10:43:11;;;;;;;13.70;5.03;;;;;;;-0.29;100.00;99501.09;4489390;31;20083;-76
2023/12/04 10:45:40;;;;;;;10.80;4.75;;;;;;;-0.24;100.00;99495.84;4486206;31;20505;-75
2023/12/04 10:48:08;;;;;;;10.10;3.72;;;;;;;-0.21;100.00;99491.41;4484399;31;20088;-74
2023/12/04 10:50:41;;;;;;;7.82;4.10;;;;;;;-0.16;100.00;99485.28;4486168;31;20473;-74
2023/12/04 10:53:12;;;;;;;7.40;4.17;;;;;;;-0.02;100.00;99477.91;4483319;31;20448;-73
2023/12/04 10:55:40;;;;;;;10.07;4.20;;;;;;;-0.14;100.00;99478.31;4484093;31;20239;-76
2023/12/04 10:58:09;;;;;;;11.38;4.40;;;;;;;0.04;100.00;99480.25;4487801;31;20084;-75
2023/12/04 11:00:45;;;;;;;6.05;2.97;;;;;;;0.04;100.00;99469.97;4487645;31;20118;-76
2023/12/04 11:03:23;;;;;;;10.45;4.05;;;;;;;0.05;100.00;99471.66;4475945;31;20120;-73
2023/12/04 11:06:00;;;;;;;10.07;4.40;;;;;;;0.14;100.00;99468.75;4493606;31;20088;-74
2023/12/04 11:08:29;;;;;;;10.75;5.50;;;;;;;0.29;100.00;99469.13;4473733;31;20110;-75
2023/12/04 11:11:12;;;;;;;11.12;4.45;;;;;;;0.34;100.00;99459.47;4486500;31;20248;-75
2023/12/04 11:13:48;;;;;;;11.90;4.85;;;;;;;0.34;100.00;99462.03;4490439;31;20088;-75
2023/12/04 11:16:28;;;;;;;10.20;4.80;;;;;;;0.38;100.00;99455.91;4469393;31;20145;-75
2023/12/04 11:19:01;;;;;;;11.50;5.47;;;;;;;0.09;100.00;99456.91;4475966;32;20473;-75
2023/12/04 11:21:32;;;;;;;18.10;5.60;;;;;;;0.13;100.00;99443.88;4483483;31;20437;-74
2023/12/04 11:24:00;;;;;;;9.18;4.95;;;;;;;-0.21;100.00;99439.91;4476539;31;20108;-74
2023/12/04 11:26:28;;;;;;;9.43;4.22;;;;;;;-0.40;100.00;99438.84;4485894;31;20084;-74
2023/12/04 11:28:57;;;;;;;8.88;4.70;;;;;;;-0.47;100.00;99434.78;4476966;31;20096;-75
2023/12/04 11:31:26;;;;;;;11.20;5.20;;;;;;;-0.21;100.00;99439.09;4472696;31;20154;-76
2023/12/04 11:33:53;;;;;;;12.63;5.55;;;;;;;-0.16;100.00;99434.59;4486140;31;20815;-73
2023/12/04 11:36:21;;;;;;;11.60;5.25;;;;;;;-0.07;100.00;99436.84;4490620;31;20087;-77